UAL56 LFPG-KEWR
Flight info
| Callsign | UAL56 |
|---|---|
| Flight time | N/A |
| Altitude | 38000 |
| Route | ELCOB UT300 SENLO UN502 JSY DCT LIZAD DCT ARKIL DCT TOBOR/M082F390 NATD IBERG/N0468F400 N364A TUSKY Q475 COPLY DCT BOS DCT NELIE FLOSI4 |
| Aircraft | B772/H-SDE2E3FGHIJ5LORVWXY/LB1D1 |
Departure
| Time | 2026-04-30 09:04 |
|---|---|
| Airport | Charles de Gaulle International Airport (LFPG) |
Arrival
| Time | N/A |
|---|---|
| Airport | Newark Liberty International Airport (KEWR) |
| Time | Latitude | Longitude | Altitude | Speed | Heading |
|---|---|---|---|---|---|
| 2026-04-30 08:43 | 49.01678 | 2.54443 | 368 ft | 0 kts | 216° |
| 2026-04-30 08:55 | 49.01681 | 2.54445 | 359 ft | 3 kts | 216° |
| 2026-04-30 08:55 | 49.01696 | 2.54462 | 365 ft | 3 kts | 216° |
| 2026-04-30 08:55 | 49.01710 | 2.54482 | 365 ft | 3 kts | 246° |
| 2026-04-30 08:56 | 49.01713 | 2.54511 | 366 ft | 3 kts | 291° |
| 2026-04-30 08:56 | 49.01710 | 2.54523 | 368 ft | 0 kts | 303° |
| 2026-04-30 08:58 | 49.01711 | 2.54521 | 368 ft | 2 kts | 302° |
| 2026-04-30 08:59 | 49.01749 | 2.54426 | 366 ft | 19 kts | 302° |
| 2026-04-30 08:59 | 49.01811 | 2.54246 | 365 ft | 19 kts | 279° |
| 2026-04-30 08:59 | 49.01804 | 2.54045 | 363 ft | 19 kts | 264° |
| 2026-04-30 08:59 | 49.01791 | 2.53842 | 364 ft | 19 kts | 264° |
| 2026-04-30 09:00 | 49.01779 | 2.53638 | 366 ft | 19 kts | 265° |
| 2026-04-30 09:00 | 49.01769 | 2.53388 | 360 ft | 28 kts | 266° |
| 2026-04-30 09:00 | 49.01754 | 2.53075 | 365 ft | 30 kts | 265° |
| 2026-04-30 09:00 | 49.01738 | 2.52757 | 364 ft | 30 kts | 264° |
| 2026-04-30 09:01 | 49.01719 | 2.52440 | 365 ft | 30 kts | 268° |
| 2026-04-30 09:01 | 49.01713 | 2.52122 | 365 ft | 30 kts | 268° |
| 2026-04-30 09:01 | 49.01700 | 2.51808 | 364 ft | 30 kts | 266° |
| 2026-04-30 09:01 | 49.01673 | 2.51491 | 365 ft | 30 kts | 262° |
| 2026-04-30 09:02 | 49.01781 | 2.51268 | 359 ft | 14 kts | 356° |
| 2026-04-30 09:02 | 49.01881 | 2.51258 | 366 ft | 14 kts | 356° |
| 2026-04-30 09:02 | 49.01979 | 2.51267 | 363 ft | 15 kts | 24° |
| 2026-04-30 09:03 | 49.02059 | 2.51374 | 363 ft | 15 kts | 56° |
| 2026-04-30 09:03 | 49.02072 | 2.51449 | 364 ft | 0 kts | 84° |
| 2026-04-30 09:03 | 49.02076 | 2.51511 | 366 ft | 19 kts | 85° |
| 2026-04-30 09:04 | 49.02100 | 2.52025 | 363 ft | 82 kts | 85° |
| 2026-04-30 09:04 | 49.02162 | 2.53235 | 370 ft | 144 kts | 86° |
| 2026-04-30 09:04 | 49.02221 | 2.54829 | 944 ft | 151 kts | 86° |
| 2026-04-30 09:04 | 49.02308 | 2.56426 | 1763 ft | 154 kts | 87° |
| 2026-04-30 09:05 | 49.02417 | 2.58066 | 2465 ft | 161 kts | 86° |
| 2026-04-30 09:05 | 49.02539 | 2.59916 | 2560 ft | 185 kts | 88° |
| 2026-04-30 09:05 | 49.02645 | 2.61949 | 2772 ft | 206 kts | 90° |
| 2026-04-30 09:05 | 49.02901 | 2.64197 | 2923 ft | 231 kts | 71° |
| 2026-04-30 09:06 | 49.03987 | 2.66155 | 3303 ft | 254 kts | 37° |
| 2026-04-30 09:06 | 49.05683 | 2.67076 | 3820 ft | 273 kts | 10° |
| 2026-04-30 09:06 | 49.07611 | 2.66713 | 4378 ft | 290 kts | 342° |
| 2026-04-30 09:06 | 49.09334 | 2.65082 | 5139 ft | 294 kts | 316° |
| 2026-04-30 09:07 | 49.10452 | 2.62516 | 5815 ft | 296 kts | 290° |
| 2026-04-30 09:07 | 49.10848 | 2.59459 | 6412 ft | 294 kts | 273° |
| 2026-04-30 09:07 | 49.10974 | 2.56286 | 7019 ft | 298 kts | 271° |
| 2026-04-30 09:07 | 49.11076 | 2.53137 | 7592 ft | 303 kts | 271° |
| 2026-04-30 09:08 | 49.11177 | 2.49901 | 8258 ft | 305 kts | 271° |
| 2026-04-30 09:08 | 49.11267 | 2.46701 | 8954 ft | 305 kts | 271° |
| 2026-04-30 09:08 | 49.11364 | 2.43440 | 9524 ft | 309 kts | 271° |
| 2026-04-30 09:08 | 49.11460 | 2.40172 | 10256 ft | 307 kts | 270° |
| 2026-04-30 09:09 | 49.11560 | 2.36848 | 10660 ft | 321 kts | 270° |
| 2026-04-30 09:09 | 49.11660 | 2.33361 | 10825 ft | 342 kts | 270° |
| 2026-04-30 09:09 | 49.11578 | 2.29628 | 11150 ft | 358 kts | 262° |
| 2026-04-30 09:09 | 49.11286 | 2.25822 | 11846 ft | 362 kts | 260° |
| 2026-04-30 09:10 | 49.10946 | 2.21995 | 12597 ft | 368 kts | 260° |
| 2026-04-30 09:10 | 49.10604 | 2.18094 | 13554 ft | 370 kts | 261° |
| 2026-04-30 09:10 | 49.10279 | 2.14198 | 14311 ft | 376 kts | 261° |
| 2026-04-30 09:10 | 49.09961 | 2.10199 | 15044 ft | 381 kts | 261° |
| 2026-04-30 09:11 | 49.09650 | 2.06137 | 15765 ft | 386 kts | 261° |
| 2026-04-30 09:11 | 49.09346 | 2.02089 | 16505 ft | 390 kts | 261° |
| 2026-04-30 09:11 | 49.09037 | 1.97924 | 17260 ft | 395 kts | 261° |
| 2026-04-30 09:11 | 49.08730 | 1.93774 | 17961 ft | 400 kts | 261° |
| 2026-04-30 09:12 | 49.08411 | 1.89471 | 18626 ft | 406 kts | 261° |
| 2026-04-30 09:12 | 49.08093 | 1.85209 | 19243 ft | 410 kts | 261° |
| 2026-04-30 09:12 | 49.07766 | 1.80851 | 19860 ft | 414 kts | 261° |
| 2026-04-30 09:12 | 49.07435 | 1.76447 | 20470 ft | 418 kts | 261° |
| 2026-04-30 09:13 | 49.07102 | 1.72077 | 21058 ft | 422 kts | 261° |
| 2026-04-30 09:13 | 49.06761 | 1.67598 | 21643 ft | 427 kts | 261° |
| 2026-04-30 09:13 | 49.06414 | 1.63059 | 22227 ft | 432 kts | 261° |
| 2026-04-30 09:13 | 49.06063 | 1.58481 | 22822 ft | 436 kts | 261° |
| 2026-04-30 09:14 | 49.05706 | 1.53860 | 23455 ft | 440 kts | 261° |
| 2026-04-30 09:14 | 49.05346 | 1.49234 | 24039 ft | 443 kts | 261° |
| 2026-04-30 09:14 | 49.04983 | 1.44591 | 24624 ft | 445 kts | 261° |
| 2026-04-30 09:14 | 49.04613 | 1.39877 | 25228 ft | 447 kts | 261° |
| 2026-04-30 09:15 | 49.04240 | 1.35142 | 25825 ft | 449 kts | 261° |
| 2026-04-30 09:15 | 49.03864 | 1.30395 | 26407 ft | 451 kts | 261° |
| 2026-04-30 09:15 | 49.03487 | 1.25667 | 27016 ft | 451 kts | 261° |
| 2026-04-30 09:15 | 49.03224 | 1.20882 | 27542 ft | 455 kts | 266° |
| 2026-04-30 09:16 | 49.03290 | 1.16078 | 28013 ft | 459 kts | 271° |
| 2026-04-30 09:16 | 49.03463 | 1.11180 | 28506 ft | 462 kts | 271° |
| 2026-04-30 09:16 | 49.03638 | 1.06327 | 28988 ft | 464 kts | 271° |
| 2026-04-30 09:16 | 49.03808 | 1.01378 | 29483 ft | 466 kts | 271° |
| 2026-04-30 09:17 | 49.03969 | 0.96422 | 29941 ft | 468 kts | 271° |
| 2026-04-30 09:17 | 49.04121 | 0.91454 | 30355 ft | 470 kts | 271° |
| 2026-04-30 09:17 | 49.04266 | 0.86517 | 30710 ft | 472 kts | 271° |
| 2026-04-30 09:17 | 49.04407 | 0.81527 | 31343 ft | 467 kts | 271° |
| 2026-04-30 09:18 | 49.04545 | 0.76570 | 31696 ft | 469 kts | 271° |
| 2026-04-30 09:18 | 49.04681 | 0.71572 | 31988 ft | 472 kts | 271° |
| 2026-04-30 09:18 | 49.04814 | 0.66583 | 32178 ft | 477 kts | 271° |
| 2026-04-30 09:18 | 49.04948 | 0.61498 | 32617 ft | 477 kts | 271° |
| 2026-04-30 09:19 | 49.05078 | 0.56484 | 32856 ft | 480 kts | 271° |
| 2026-04-30 09:19 | 49.05210 | 0.51372 | 33178 ft | 482 kts | 271° |
| 2026-04-30 09:19 | 49.05339 | 0.46227 | 33471 ft | 484 kts | 271° |
| 2026-04-30 09:19 | 49.05466 | 0.41146 | 33794 ft | 484 kts | 272° |
| 2026-04-30 09:20 | 49.05591 | 0.36010 | 34252 ft | 481 kts | 272° |
| 2026-04-30 09:20 | 49.05714 | 0.30883 | 34483 ft | 482 kts | 271° |
| 2026-04-30 09:20 | 49.05832 | 0.25795 | 34598 ft | 487 kts | 271° |
| 2026-04-30 09:20 | 49.05951 | 0.20640 | 34953 ft | 485 kts | 271° |
| 2026-04-30 09:21 | 49.06065 | 0.15551 | 35297 ft | 483 kts | 271° |
| 2026-04-30 09:21 | 49.06178 | 0.10430 | 35592 ft | 482 kts | 271° |
| 2026-04-30 09:21 | 49.06290 | 0.05273 | 35710 ft | 486 kts | 271° |
| 2026-04-30 09:21 | 49.06399 | 0.00122 | 36111 ft | 482 kts | 270° |
| 2026-04-30 09:22 | 49.06504 | -0.04909 | 36536 ft | 479 kts | 270° |
| 2026-04-30 09:22 | 49.06608 | -0.10010 | 36760 ft | 479 kts | 270° |
| 2026-04-30 09:22 | 49.06710 | -0.15119 | 36947 ft | 481 kts | 270° |
| 2026-04-30 09:22 | 49.06810 | -0.20228 | 37226 ft | 480 kts | 270° |
| 2026-04-30 09:23 | 49.06906 | -0.25252 | 37559 ft | 477 kts | 270° |
| 2026-04-30 09:23 | 49.07001 | -0.30333 | 37828 ft | 476 kts | 270° |
| 2026-04-30 09:23 | 49.07092 | -0.35337 | 37972 ft | 478 kts | 269° |
| 2026-04-30 09:23 | 49.07183 | -0.40429 | 38034 ft | 479 kts | 270° |
| 2026-04-30 09:24 | 49.07358 | -0.50540 | 38100 ft | 478 kts | 270° |
| 2026-04-30 09:24 | 49.07525 | -0.60686 | 38101 ft | 476 kts | 269° |
| 2026-04-30 09:25 | 49.07794 | -0.78255 | 38077 ft | 475 kts | 269° |
| 2026-04-30 09:25 | 49.08528 | -1.18590 | 38075 ft | 476 kts | 275° |
| 2026-04-30 09:26 | 49.14755 | -1.57819 | 38082 ft | 476 kts | 282° |
| 2026-04-30 09:26 | 49.20919 | -1.96987 | 38062 ft | 475 kts | 281° |
| 2026-04-30 09:27 | 49.27521 | -2.36283 | 38072 ft | 475 kts | 282° |
| 2026-04-30 09:27 | 49.34066 | -2.75312 | 38064 ft | 475 kts | 281° |
| 2026-04-30 09:28 | 49.40530 | -3.14767 | 38076 ft | 475 kts | 281° |
| 2026-04-30 09:28 | 49.46860 | -3.54327 | 38036 ft | 479 kts | 281° |
| 2026-04-30 09:29 | 49.53091 | -3.94226 | 38061 ft | 478 kts | 280° |
| 2026-04-30 09:29 | 49.59347 | -4.33831 | 38050 ft | 482 kts | 287° |
| 2026-04-30 09:30 | 49.70981 | -4.71491 | 38058 ft | 486 kts | 292° |
| 2026-04-30 09:30 | 49.82535 | -5.09225 | 38066 ft | 487 kts | 292° |
| 2026-04-30 09:31 | 49.94057 | -5.47418 | 38070 ft | 488 kts | 292° |
| 2026-04-30 09:31 | 50.05455 | -5.85801 | 38033 ft | 490 kts | 291° |
| 2026-04-30 09:32 | 50.16823 | -6.24703 | 38035 ft | 492 kts | 291° |
| 2026-04-30 09:32 | 50.28043 | -6.63724 | 38064 ft | 494 kts | 291° |
| 2026-04-30 09:33 | 50.39133 | -7.02938 | 38083 ft | 495 kts | 290° |
| 2026-04-30 09:33 | 50.50204 | -7.42743 | 38034 ft | 498 kts | 290° |
| 2026-04-30 09:34 | 50.61132 | -7.82709 | 38006 ft | 499 kts | 290° |
| 2026-04-30 09:34 | 50.72618 | -8.22646 | 38017 ft | 502 kts | 293° |
| 2026-04-30 09:35 | 50.84574 | -8.62407 | 38030 ft | 502 kts | 292° |
| 2026-04-30 09:35 | 50.96425 | -9.02660 | 38025 ft | 502 kts | 291° |
| 2026-04-30 09:36 | 51.08081 | -9.42918 | 38017 ft | 502 kts | 291° |
| 2026-04-30 09:36 | 51.19556 | -9.83236 | 37985 ft | 502 kts | 291° |
| 2026-04-30 09:37 | 51.30991 | -10.24105 | 38011 ft | 502 kts | 291° |
| 2026-04-30 09:37 | 51.42184 | -10.64817 | 38036 ft | 502 kts | 291° |
| 2026-04-30 09:38 | 51.53255 | -11.05801 | 38000 ft | 502 kts | 291° |
| 2026-04-30 09:38 | 51.64233 | -11.47174 | 38013 ft | 502 kts | 290° |
| 2026-04-30 09:39 | 51.75028 | -11.88604 | 38022 ft | 502 kts | 291° |
| 2026-04-30 09:39 | 51.83939 | -12.23387 | 38032 ft | 502 kts | 291° |
| 2026-04-30 09:40 | 51.94492 | -12.65289 | 38030 ft | 501 kts | 291° |
| 2026-04-30 09:40 | 51.99752 | -12.86477 | 38185 ft | 503 kts | 291° |
| 2026-04-30 09:41 | 52.01053 | -12.91750 | 38490 ft | 501 kts | 291° |
| 2026-04-30 09:41 | 52.02333 | -12.96945 | 38824 ft | 497 kts | 291° |
| 2026-04-30 09:41 | 52.03725 | -13.02610 | 38965 ft | 497 kts | 291° |
| 2026-04-30 09:41 | 52.05397 | -13.09437 | 39041 ft | 498 kts | 291° |
| 2026-04-30 09:42 | 52.15027 | -13.49179 | 39068 ft | 500 kts | 291° |